Time;durP1;ratioP1;P1;durP2;ratioP2;P2;SDS_P1;SDS_P2;PMS_P1;PMS_P2;Temp;Humidity;BMP_temperature;BMP_pressure;BME280_temperature;BME280_humidity;BME280_pressure;Samples;Min_cycle;Max_cycle;Signal;HPM_P1;HPM_P2
2021/06/15 04:12:31;;;;;;;;;7.00;7.00;;;;;21.49;52.06;101448.25;5289009;23;45930;-80
2021/06/15 04:14:58;;;;;;;;;7.25;6.50;;;;;21.55;51.94;101452.38;4885154;29;45459;-80
2021/06/15 04:17:28;;;;;;;;;8.75;7.75;;;;;21.54;52.10;101448.88;4850379;29;45588;-79
2021/06/15 04:19:55;;;;;;;;;6.75;6.50;;;;;21.53;52.36;101438.41;4837648;29;47342;-80
2021/06/15 04:22:21;;;;;;;;;6.00;6.00;;;;;21.56;52.17;101452.28;4854985;29;45522;-79
2021/06/15 04:24:48;;;;;;;;;7.50;5.50;;;;;21.46;52.72;101441.34;4839307;29;45593;-79
2021/06/15 04:27:14;;;;;;;;;5.25;5.25;;;;;21.40;52.50;101451.34;4862133;29;45478;-79
2021/06/15 04:29:39;;;;;;;;;7.25;7.25;;;;;21.45;52.74;101451.97;4856208;29;45580;-79
2021/06/15 04:32:08;;;;;;;;;7.50;7.50;;;;;21.40;52.39;101454.00;4864334;29;45551;-79
2021/06/15 04:34:35;;;;;;;;;9.00;7.25;;;;;21.41;52.26;101455.69;4854573;29;45443;-80
2021/06/15 04:37:02;;;;;;;;;6.75;6.00;;;;;21.47;51.81;101468.56;4868039;29;45586;-79
2021/06/15 04:39:42;;;;;;;;;12.25;8.50;;;;;21.40;51.73;101443.44;4868056;29;46314;-79
2021/06/15 04:42:12;;;;;;;;;7.50;7.00;;;;;21.45;52.54;101450.19;4852664;29;45472;-79
2021/06/15 04:44:42;;;;;;;;;9.00;7.25;;;;;21.56;52.79;101475.16;4846994;29;45570;-79
2021/06/15 04:47:15;;;;;;;;;6.25;6.25;;;;;21.47;52.24;101463.31;4873507;29;45565;-79
2021/06/15 04:49:47;;;;;;;;;9.00;7.00;;;;;21.62;52.32;101495.97;4868948;29;46319;-79
2021/06/15 04:52:14;;;;;;;;;7.75;7.50;;;;;21.60;52.06;101475.88;4851328;29;45645;-79
2021/06/15 04:54:45;;;;;;;;;9.00;7.50;;;;;21.70;51.81;101490.28;4841163;29;45601;-80
2021/06/15 04:57:12;;;;;;;;;8.00;8.00;;;;;21.67;51.42;101479.91;4839818;29;45904;-79
2021/06/15 04:59:37;;;;;;;;;7.50;6.75;;;;;21.66;51.11;101476.41;4838993;29;47111;-79
2021/06/15 05:02:06;;;;;;;;;9.00;8.50;;;;;21.64;50.95;101478.25;4867191;29;45455;-79
2021/06/15 05:04:32;;;;;;;;;9.50;9.00;;;;;21.82;51.17;101496.78;4847900;29;45443;-79
2021/06/15 05:06:57;;;;;;;;;11.50;10.00;;;;;21.94;50.70;101497.91;4841455;29;45638;-79
2021/06/15 05:09:25;;;;;;;;;9.00;7.00;;;;;21.96;50.77;101497.81;4851453;29;46368;-80
2021/06/15 05:11:50;;;;;;;;;8.75;8.75;;;;;22.13;50.37;101496.97;4832784;29;45568;-79
2021/06/15 05:14:16;;;;;;;;;8.00;8.00;;;;;22.13;50.51;101489.88;4835165;29;45545;-80
2021/06/15 05:16:41;;;;;;;;;9.75;9.00;;;;;22.15;50.36;101492.44;4857283;29;45524;-80
2021/06/15 05:19:07;;;;;;;;;11.50;9.00;;;;;22.22;50.54;101508.81;4860572;29;45846;-79
2021/06/15 05:21:52;;;;;;;;;12.50;9.25;;;;;22.33;49.97;101513.53;4841796;29;45583;-79
2021/06/15 05:24:30;;;;;;;;;8.00;8.00;;;;;22.34;50.64;101517.88;4848757;29;45545;-80
2021/06/15 05:26:57;;;;;;;;;9.00;9.00;;;;;22.25;50.79;101503.38;4865761;29;45550;-80
2021/06/15 05:29:22;;;;;;;;;11.50;11.50;;;;;22.22;50.45;101498.25;4857060;29;45394;-80
2021/06/15 05:31:48;;;;;;;;;15.50;12.75;;;;;22.35;50.54;101519.56;4854141;29;45451;-80
2021/06/15 05:34:14;;;;;;;;;10.00;9.00;;;;;22.25;50.34;101500.72;4864770;29;45466;-79
2021/06/15 05:36:39;;;;;;;;;10.75;10.00;;;;;22.36;50.91;101501.03;4869877;29;45407;-79
2021/06/15 05:39:05;;;;;;;;;8.75;8.75;;;;;22.60;51.13;101497.97;4865532;29;45673;-80
2021/06/15 05:41:31;;;;;;;;;10.50;9.75;;;;;22.76;50.27;101502.44;4834122;29;45559;-80
2021/06/15 05:43:56;;;;;;;;;11.00;9.25;;;;;22.95;50.02;101502.25;4836581;29;45801;-78
2021/06/15 05:46:22;;;;;;;;;10.50;10.25;;;;;23.23;49.74;101516.53;4848760;29;45469;-78
2021/06/15 05:48:47;;;;;;;;;13.50;12.00;;;;;23.44;48.67;101508.38;4854558;29;45505;-78
2021/06/15 05:51:13;;;;;;;;;12.75;10.00;;;;;23.72;48.41;101516.44;4848448;29;45535;-79
2021/06/15 05:53:38;;;;;;;;;9.50;8.75;;;;;23.84;47.92;101501.66;4848503;29;45568;-78
2021/06/15 05:56:07;;;;;;;;;11.00;10.00;;;;;23.93;48.15;101502.88;4856817;29;45781;-79
2021/06/15 06:02:51;;;;;;;;;13.00;13.00;;;;;24.22;47.22;101533.84;4797896;29;45612;-77
2021/06/15 07:11:59;;;;;;;;;;;;;;;;;;;;;
